Detailed Flight Report of Nuri Burak ERKAL ;
Number CXD079 
Departure Aerodrome LTCG 
Arrival Aerodrome LTBJ

Map generated by the Great Circle Mapper - copyright © Karl L. Swartz.

Pilot In Command CXD079 : Nuri Burak Erkal
Aircraft B773 / TC-NZL
Date Of Flight 2020-06-10
Departure Time 07:26 UTC
Arrival Time 09:16 UTC
Block Time 01:50
Distance 646 Nm.
Used Fuel 27,310 Lbs.
   
Detailed Flight Log [2020/06/10 07:40:00]
Flight IATA:C001
Pilot Number:079
Company ICAO:CXD
Aircraft Type:B773
Aircraft Registration:TC-NZL
Departing Airport: LTCG
Destination Airport: LTBJ
Alternate Airport:LTBU
Online: VATSIM
Route:ARLAT UM11 CRM UW71 BAG UP29 HALIL UT54 KFK UR32 NESET UT54 KULAR
Flight Level:FL380
No pause
07:40 Zero fuel Weight: 500752 Lbs, Fuel Weight: 44995 Lbs
07:40 VATSIM:LTCG 091620Z 23006KT 9999 BKN035 23/15 Q1010 NOSIG
07:40 VATSIM:LTBJ 091620Z 19008KT CAVOK 30/11 Q1007 NOSIG
07:46 Parking Brakes off
07:58 VR= 171 Knots
07:58 V2= 178 Knots
07:58 Take-off
07:58 Take off Weight: 544228 Lbs
07:58 Wind: 229º @ 006 Knots Heading: 291º
07:58 POS N40º 59´ 51´´ E039º 46´ 53´´
07:58 N11 93 N12 93
07:58 Flaps:5º at 180 Knots
07:58 Gear Up: 177 Knots
07:59 Flaps:1º at 190 Knots
07:59 Flaps:Up at 209 Knots
08:13 Wind:202º@026 Knots Heading: 273º Ground Speed: 475
Knots Altitude 35898 ft
08:28 Wind:212º@017 Knots Heading: 247º Ground Speed: 464 Knots Altitude 35879 ft
08:43 Wind:234º@014 Knots Heading: 232º Ground Speed: 464 Knots Altitude 35931 ft
08:58 Wind:243º@020 Knots Heading: 246º Ground Speed: 460 Knots Altitude 36371 ft
08:59 TOC
08:59 Fuel Weight: 23237 Lb
09:04 TOD
09:04 Fuel Weight: 21920 Lb
09:13 Wind:200º@017 Knots Heading: 260º Ground Speed: 404 Knots Altitude 16850 ft
09:28 Wind:152º@004 Knots Heading: 237º Ground Speed: 222 Knots Altitude 3877 ft
09:28 Flaps:1º at 190 Knots
09:28 Flaps:5º at 186 Knots
09:30 Flaps:15º at 181 Knots
09:31 Gear Down: 198 Knots
09:31 Flaps:30º at 200 Knots
09:31 Flaps:35º at 172 Knots
09:31 Flaps:Full at 166 Knots
09:33 TouchDown:Rate -58 ft/min Speed: 137 Knots
09:33 VATSIM:LTBJ 091820Z 25004KT CAVOK 25/13 Q1008 NOSIG
09:33 Land
09:33 Wind:200º@004 Knots
09:33 Heading:
346º
09:33 Flight Duration: 01:35
09:33 Landing Weight: 518703 Lbs
09:33 POS N38º 17´ 35´´ E027º 09´ 27´´
09:36 Parking brakes on
09:36 Block to Block Duration: 01:50
09:36 Final Fuel: 17685 Lbls
09:36 Spent Fuel: 27310 Lbls
09:36 Flight Length: 646 NM
09:36 TOD Land Length: 152 NM

Text Link of Flight Log http://www.candanair.net/acars/logs/CXD07920200610074000.txt
   

[ Back ]